createdAt,value
2018-08-06T00:00:40.829Z,99.90
2018-08-06T00:03:09.693Z,99.90
2018-08-06T00:05:38.356Z,99.90
2018-08-06T00:08:07.392Z,99.90
2018-08-06T00:10:35.845Z,99.90
2018-08-06T00:13:04.341Z,99.90
2018-08-06T00:15:32.763Z,99.90
2018-08-06T00:18:01.273Z,99.90
2018-08-06T00:20:29.705Z,99.90
2018-08-06T00:22:58.228Z,99.90
2018-08-06T00:25:26.756Z,99.90
2018-08-06T00:27:55.151Z,99.90
2018-08-06T00:30:23.644Z,99.90
2018-08-06T00:32:53.331Z,99.90
2018-08-06T00:35:21.812Z,99.90
2018-08-06T00:37:50.211Z,99.90
2018-08-06T00:40:20.264Z,99.90
2018-08-06T00:42:49.237Z,99.90
2018-08-06T00:45:19.387Z,99.90
2018-08-06T00:47:48.545Z,99.90
2018-08-06T00:50:17.466Z,99.90
2018-08-06T00:52:46.129Z,99.90
2018-08-06T00:55:16.790Z,99.90
2018-08-06T00:57:45.240Z,99.90
2018-08-06T01:00:16.075Z,99.90
2018-08-06T01:02:44.555Z,99.90
2018-08-06T01:05:13.951Z,99.90
2018-08-06T01:07:45.148Z,99.90
2018-08-06T01:10:14.832Z,99.90
2018-08-06T01:12:43.289Z,99.90
2018-08-06T01:15:14.540Z,99.90
2018-08-06T01:17:43.015Z,99.90
2018-08-06T01:20:12.835Z,99.90
2018-08-06T01:22:43.164Z,99.90
2018-08-06T01:25:12.233Z,99.90
2018-08-06T01:27:40.681Z,99.90
2018-08-06T01:30:10.851Z,99.90
2018-08-06T01:32:39.308Z,99.90
2018-08-06T01:35:09.049Z,99.90
2018-08-06T01:37:37.512Z,99.90
2018-08-06T01:40:07.992Z,99.90
2018-08-06T01:42:36.577Z,99.90
2018-08-06T01:45:05.279Z,99.90
2018-08-06T01:47:33.689Z,99.90
2018-08-06T01:50:02.156Z,99.90
2018-08-06T01:52:30.601Z,99.90
2018-08-06T01:54:59.010Z,99.90
2018-08-06T01:57:27.549Z,99.90
2018-08-06T01:59:56.770Z,99.90
2018-08-06T02:02:25.187Z,99.90
2018-08-06T02:04:53.612Z,99.90
2018-08-06T02:07:21.988Z,99.90
2018-08-06T02:09:50.696Z,99.90
2018-08-06T02:12:19.244Z,99.90
2018-08-06T02:14:47.671Z,99.90
2018-08-06T02:17:16.061Z,99.90
2018-08-06T02:19:44.520Z,99.90
2018-08-06T02:22:12.945Z,99.90
2018-08-06T02:24:41.417Z,99.90
2018-08-06T02:27:09.843Z,99.90
2018-08-06T02:29:38.254Z,99.90
2018-08-06T02:32:06.784Z,99.90
2018-08-06T02:34:35.248Z,99.90
2018-08-06T02:37:03.723Z,99.90
2018-08-06T02:39:32.128Z,99.90
2018-08-06T02:42:00.672Z,99.90
2018-08-06T02:44:29.344Z,99.90
2018-08-06T02:46:57.824Z,99.90
2018-08-06T02:49:26.347Z,99.90
2018-08-06T02:51:54.724Z,99.90
2018-08-06T02:54:23.140Z,99.90
2018-08-06T02:56:51.596Z,99.90
2018-08-06T02:59:20.046Z,99.90
2018-08-06T03:01:48.490Z,99.90
2018-08-06T03:04:16.888Z,99.90
2018-08-06T03:06:45.311Z,99.90
2018-08-06T03:11:42.123Z,99.90
2018-08-06T03:14:10.593Z,99.90
2018-08-06T03:16:39.498Z,99.90
2018-08-06T03:19:07.974Z,99.90
2018-08-06T03:21:36.380Z,99.90
2018-08-06T03:24:04.881Z,99.90
2018-08-06T03:26:33.294Z,99.90
2018-08-06T03:29:01.696Z,99.90
2018-08-06T03:31:30.161Z,99.90
2018-08-06T03:33:58.576Z,99.90
2018-08-06T03:36:27.041Z,99.90
2018-08-06T03:38:55.488Z,99.90
2018-08-06T03:41:23.884Z,99.90
2018-08-06T03:43:52.625Z,99.90
2018-08-06T03:46:21.035Z,99.90
2018-08-06T03:48:51.960Z,99.90
2018-08-06T03:51:20.448Z,99.90
2018-08-06T03:53:48.851Z,99.90
2018-08-06T03:56:19.788Z,99.90
2018-08-06T03:58:49.266Z,99.90
2018-08-06T04:01:17.709Z,99.90
2018-08-06T04:03:46.098Z,99.90
2018-08-06T04:06:16.065Z,99.90
2018-08-06T04:08:44.467Z,99.90
2018-08-06T04:11:13.121Z,99.90
2018-08-06T04:13:41.820Z,99.90
2018-08-06T04:16:10.221Z,99.90
2018-08-06T04:18:38.641Z,99.90
2018-08-06T04:21:07.040Z,99.90
2018-08-06T04:23:35.464Z,99.90
2018-08-06T04:26:03.887Z,99.90
2018-08-06T04:28:32.317Z,99.90
2018-08-06T04:31:00.736Z,99.90
2018-08-06T04:33:29.181Z,99.90
2018-08-06T04:35:57.584Z,99.90
2018-08-06T04:38:26.110Z,99.90
2018-08-06T04:40:54.482Z,99.90
2018-08-06T04:43:22.892Z,99.90
2018-08-06T04:45:51.332Z,99.90
2018-08-06T04:48:19.697Z,99.90
2018-08-06T04:50:48.113Z,99.90
2018-08-06T04:53:16.543Z,99.90
2018-08-06T04:55:44.993Z,99.90
2018-08-06T05:00:41.521Z,99.90
2018-08-06T05:03:09.916Z,99.90
2018-08-06T05:05:38.380Z,99.90
2018-08-06T05:08:06.786Z,99.90
2018-08-06T05:10:35.217Z,99.90
2018-08-06T05:13:03.619Z,99.90
2018-08-06T05:15:32.028Z,99.90
2018-08-06T05:18:00.414Z,99.90
2018-08-06T05:20:28.792Z,99.90
2018-08-06T05:22:57.218Z,99.90
2018-08-06T05:25:25.608Z,99.90
2018-08-06T05:27:54.020Z,99.90
2018-08-06T05:30:22.434Z,99.90
2018-08-06T05:32:50.865Z,99.90
2018-08-06T05:35:19.256Z,99.90
2018-08-06T05:40:15.831Z,99.90
2018-08-06T05:42:44.271Z,99.90
2018-08-06T05:45:12.764Z,99.90
2018-08-06T05:50:11.859Z,99.90
2018-08-06T05:52:40.282Z,99.90
2018-08-06T05:55:09.688Z,99.90
2018-08-06T05:57:38.282Z,99.90
2018-08-06T06:00:10.429Z,99.90
2018-08-06T06:02:38.849Z,99.90
2018-08-06T06:05:07.705Z,99.90
2018-08-06T06:07:36.168Z,99.90
2018-08-06T06:10:05.995Z,99.90
2018-08-06T06:12:35.313Z,99.90
2018-08-06T06:15:05.817Z,99.90
2018-08-06T06:17:34.268Z,99.90
2018-08-06T06:22:30.810Z,99.90
2018-08-06T06:24:59.223Z,99.90
2018-08-06T06:27:27.805Z,99.90
2018-08-06T06:29:56.192Z,99.90
2018-08-06T06:32:24.665Z,99.90
2018-08-06T06:34:53.112Z,99.90
2018-08-06T06:37:21.501Z,99.90
2018-08-06T06:39:50.124Z,99.90
2018-08-06T06:42:18.555Z,99.90
2018-08-06T06:44:46.980Z,99.90
2018-08-06T06:47:15.422Z,99.90
2018-08-06T06:49:43.858Z,99.90
2018-08-06T06:52:12.356Z,99.90
2018-08-06T06:54:40.744Z,99.90
2018-08-06T06:57:09.174Z,99.90
2018-08-06T06:59:38.610Z,99.90
2018-08-06T07:02:07.017Z,99.90
2018-08-06T07:04:35.448Z,99.90
2018-08-06T07:07:03.939Z,99.90
2018-08-06T07:09:32.352Z,99.90
2018-08-06T07:12:00.864Z,99.90
2018-08-06T07:14:29.285Z,99.90
2018-08-06T07:16:57.725Z,99.90
2018-08-06T07:19:26.120Z,99.90
2018-08-06T07:21:54.553Z,99.90
2018-08-06T07:26:51.921Z,99.90
2018-08-06T07:29:20.416Z,99.90
2018-08-06T07:31:48.845Z,99.90
2018-08-06T07:34:17.248Z,99.90
2018-08-06T07:36:45.685Z,99.90
2018-08-06T07:39:14.102Z,99.90
2018-08-06T07:41:42.540Z,99.90
2018-08-06T07:44:11.035Z,99.90
2018-08-06T07:46:39.528Z,99.90
2018-08-06T07:49:07.969Z,99.90
2018-08-06T07:51:36.404Z,99.90
2018-08-06T07:54:04.941Z,99.90
2018-08-06T07:56:33.340Z,99.90
2018-08-06T07:59:01.849Z,99.90
2018-08-06T08:01:30.261Z,99.90
2018-08-06T08:03:58.780Z,99.90
2018-08-06T08:06:27.315Z,99.90
2018-08-06T08:08:55.701Z,99.90
2018-08-06T08:11:24.101Z,99.90
2018-08-06T08:13:52.530Z,99.90
2018-08-06T08:16:21.035Z,99.90
2018-08-06T08:18:49.532Z,99.90
2018-08-06T08:21:17.948Z,99.90
2018-08-06T08:23:46.332Z,99.90
2018-08-06T08:26:14.798Z,99.90
2018-08-06T08:28:43.268Z,99.90
2018-08-06T08:31:11.781Z,99.90
2018-08-06T08:33:40.260Z,99.90
2018-08-06T08:36:08.692Z,99.90
2018-08-06T08:38:37.104Z,99.90
2018-08-06T08:41:05.578Z,99.90
2018-08-06T08:43:34.032Z,99.90
2018-08-06T08:46:02.464Z,99.90
2018-08-06T08:50:59.156Z,99.90
2018-08-06T08:53:27.589Z,99.90
2018-08-06T08:58:24.162Z,99.90
2018-08-06T09:00:52.609Z,99.90
2018-08-06T09:03:21.085Z,99.90
2018-08-06T09:05:49.488Z,99.90
2018-08-06T09:08:17.924Z,99.90
2018-08-06T09:10:46.452Z,98.90
2018-08-06T09:13:14.913Z,98.80
2018-08-06T09:15:43.348Z,98.80
2018-08-06T09:18:11.804Z,99.30
2018-08-06T09:20:40.285Z,99.50
2018-08-06T09:23:08.732Z,98.90
2018-08-06T09:25:37.160Z,98.90
2018-08-06T09:28:05.582Z,98.70
2018-08-06T09:30:34.077Z,98.10
2018-08-06T09:35:30.628Z,95.80
2018-08-06T09:37:59.044Z,94.10
2018-08-06T09:40:27.558Z,92.70
2018-08-06T09:42:56.116Z,90.00
2018-08-06T09:45:24.605Z,87.60
2018-08-06T09:47:54.204Z,85.70
2018-08-06T09:50:23.032Z,85.70
2018-08-06T09:52:52.489Z,83.80
2018-08-06T09:55:25.292Z,82.30
2018-08-06T09:57:54.205Z,80.10
2018-08-06T10:00:28.499Z,79.60
2018-08-06T10:02:58.201Z,79.30
2018-08-06T10:05:27.313Z,78.50
2018-08-06T10:07:55.813Z,76.70
2018-08-06T10:10:24.261Z,77.00
2018-08-06T10:12:52.739Z,76.90
2018-08-06T10:15:21.921Z,76.30
2018-08-06T10:17:52.786Z,74.70
2018-08-06T10:20:22.679Z,75.30
2018-08-06T10:22:51.159Z,73.30
2018-08-06T10:25:19.588Z,73.70
2018-08-06T10:27:48.343Z,70.60
2018-08-06T10:30:21.027Z,68.50
2018-08-06T10:32:49.451Z,67.30
2018-08-06T10:35:18.793Z,67.50
2018-08-06T10:37:47.248Z,66.00
2018-08-06T10:40:20.108Z,66.90
2018-08-06T10:42:48.472Z,67.10
2018-08-06T10:45:18.234Z,65.60
2018-08-06T10:47:46.929Z,64.60
2018-08-06T10:50:15.383Z,63.70
2018-08-06T10:52:43.979Z,64.20
2018-08-06T10:55:12.865Z,61.00
2018-08-06T10:57:42.899Z,60.60
2018-08-06T11:00:13.869Z,63.10
2018-08-06T11:02:42.412Z,59.40
2018-08-06T11:05:12.126Z,60.00
2018-08-06T11:07:40.696Z,59.30
2018-08-06T11:10:11.504Z,59.60
2018-08-06T11:12:40.317Z,58.60
2018-08-06T11:15:12.952Z,61.20
2018-08-06T11:17:41.455Z,57.80
2018-08-06T11:20:11.700Z,58.30
2018-08-06T11:22:40.733Z,57.10
2018-08-06T11:25:10.833Z,56.90
2018-08-06T11:27:39.391Z,56.30
2018-08-06T11:30:10.378Z,56.20
2018-08-06T11:32:38.820Z,55.50
2018-08-06T11:35:07.925Z,54.70
2018-08-06T11:37:36.396Z,56.10
2018-08-06T11:40:06.334Z,56.90
2018-08-06T11:42:34.779Z,54.90
2018-08-06T11:45:03.211Z,54.00
2018-08-06T11:47:31.632Z,52.20
2018-08-06T11:50:00.054Z,53.40
2018-08-06T11:52:28.557Z,53.00
2018-08-06T11:54:56.960Z,51.50
2018-08-06T11:57:25.491Z,50.90
2018-08-06T11:59:53.883Z,51.00
2018-08-06T12:02:22.413Z,51.70
2018-08-06T12:04:50.922Z,51.70
2018-08-06T12:07:19.397Z,49.70
2018-08-06T12:09:47.824Z,49.50
2018-08-06T12:12:16.297Z,49.10
2018-08-06T12:14:44.728Z,49.40
2018-08-06T12:17:13.161Z,48.10
2018-08-06T12:19:41.696Z,46.50
2018-08-06T12:22:10.151Z,48.80
2018-08-06T12:24:38.573Z,50.70
2018-08-06T12:27:07.007Z,50.00
2018-08-06T12:29:35.405Z,49.40
2018-08-06T12:32:03.953Z,49.00
2018-08-06T12:34:32.368Z,50.90
2018-08-06T12:37:01.020Z,48.90
2018-08-06T12:39:29.417Z,49.90
2018-08-06T12:41:58.044Z,49.30
2018-08-06T12:44:26.490Z,51.90
2018-08-06T12:46:54.989Z,53.00
2018-08-06T12:49:23.488Z,49.50
2018-08-06T12:51:51.927Z,50.10
2018-08-06T12:54:20.357Z,50.00
2018-08-06T12:56:48.773Z,50.20
2018-08-06T12:59:17.223Z,49.60
2018-08-06T13:01:45.768Z,48.90
2018-08-06T13:04:14.175Z,48.80
2018-08-06T13:06:42.610Z,49.50
2018-08-06T13:09:11.076Z,47.80
2018-08-06T13:11:39.523Z,47.10
2018-08-06T13:14:08.265Z,47.50
2018-08-06T13:16:36.693Z,52.50
2018-08-06T13:19:05.402Z,52.30
2018-08-06T13:21:33.939Z,52.00
2018-08-06T13:24:02.397Z,51.60
2018-08-06T13:26:30.876Z,52.50
2018-08-06T13:28:59.279Z,51.00
2018-08-06T13:31:27.692Z,50.10
2018-08-06T13:33:56.155Z,50.80
2018-08-06T13:36:24.595Z,51.20
2018-08-06T13:38:52.997Z,50.20
2018-08-06T13:41:21.456Z,49.90
2018-08-06T13:43:49.879Z,49.70
2018-08-06T13:46:18.604Z,49.60
2018-08-06T13:48:47.028Z,48.80
2018-08-06T13:51:15.461Z,47.80
2018-08-06T13:53:43.884Z,48.50
2018-08-06T13:56:12.344Z,49.30
2018-08-06T13:58:40.776Z,48.90
2018-08-06T14:01:09.240Z,48.10
2018-08-06T14:03:37.680Z,48.90
2018-08-06T14:06:06.105Z,49.00
2018-08-06T14:08:34.564Z,49.10
2018-08-06T14:13:31.168Z,49.80
2018-08-06T14:15:59.601Z,49.30
2018-08-06T14:18:28.013Z,49.50
2018-08-06T14:20:56.530Z,49.20
2018-08-06T14:23:24.968Z,49.40
2018-08-06T14:25:53.454Z,48.90
2018-08-06T14:28:21.841Z,48.60
2018-08-06T14:30:50.259Z,49.00
2018-08-06T14:33:18.765Z,49.30
2018-08-06T14:35:47.256Z,49.50
2018-08-06T14:38:15.702Z,48.60
2018-08-06T14:40:44.149Z,49.30
2018-08-06T14:43:12.618Z,49.00
2018-08-06T14:45:41.040Z,48.70
2018-08-06T14:48:09.459Z,50.70
2018-08-06T14:50:38.956Z,50.80
2018-08-06T14:53:07.384Z,50.10
2018-08-06T14:55:35.916Z,50.50
2018-08-06T14:58:04.354Z,49.90
2018-08-06T15:00:32.816Z,49.40
2018-08-06T15:03:01.488Z,49.70
2018-08-06T15:05:29.972Z,48.80
2018-08-06T15:07:58.473Z,49.20
2018-08-06T15:10:27.033Z,49.30
2018-08-06T15:12:55.618Z,49.70
2018-08-06T15:15:24.143Z,50.50
2018-08-06T15:17:52.523Z,50.40
2018-08-06T15:20:20.972Z,50.30
2018-08-06T15:22:49.485Z,49.90
2018-08-06T15:25:21.614Z,50.30
2018-08-06T15:27:50.414Z,50.40
2018-08-06T15:30:19.186Z,50.50
2018-08-06T15:32:47.729Z,49.70
2018-08-06T15:35:16.192Z,50.10
2018-08-06T15:37:45.131Z,49.20
2018-08-06T15:40:17.151Z,50.00
2018-08-06T15:42:45.634Z,49.70
2018-08-06T15:45:14.680Z,49.40
2018-08-06T15:47:44.080Z,49.40
2018-08-06T15:50:17.527Z,49.80
2018-08-06T15:52:46.049Z,50.00
2018-08-06T15:55:14.858Z,50.00
2018-08-06T15:57:43.516Z,50.00
2018-08-06T16:00:14.556Z,50.50
2018-08-06T16:02:43.168Z,49.90
2018-08-06T16:05:11.609Z,50.00
2018-08-06T16:07:40.524Z,50.30
2018-08-06T16:10:10.711Z,50.60
2018-08-06T16:12:39.548Z,51.10
2018-08-06T16:17:37.807Z,50.90
2018-08-06T16:20:08.185Z,50.30
2018-08-06T16:22:36.624Z,51.20
2018-08-06T16:25:05.396Z,51.70
2018-08-06T16:27:34.285Z,51.30
2018-08-06T16:30:03.216Z,51.40
2018-08-06T16:32:31.672Z,51.60
2018-08-06T16:35:00.186Z,51.40
2018-08-06T16:37:28.656Z,51.50
2018-08-06T16:39:57.105Z,51.60
2018-08-06T16:42:25.551Z,51.70
2018-08-06T16:44:53.987Z,52.30
2018-08-06T16:47:22.445Z,52.10
2018-08-06T16:49:50.920Z,52.30
2018-08-06T16:52:19.391Z,52.70
2018-08-06T16:54:47.876Z,52.10
2018-08-06T16:57:16.297Z,52.80
2018-08-06T17:02:12.901Z,52.70
2018-08-06T17:04:41.560Z,52.70
2018-08-06T17:07:10.003Z,53.00
2018-08-06T17:09:38.470Z,52.80
2018-08-06T17:12:06.949Z,53.00
2018-08-06T17:14:35.712Z,52.50
2018-08-06T17:17:04.232Z,52.80
2018-08-06T17:19:32.661Z,52.90
2018-08-06T17:22:01.152Z,53.90
2018-08-06T17:24:29.688Z,54.60
2018-08-06T17:26:58.136Z,54.70
2018-08-06T17:29:26.693Z,54.00
2018-08-06T17:34:23.472Z,54.30
2018-08-06T17:36:51.946Z,54.70
2018-08-06T17:39:21.190Z,54.40
2018-08-06T17:41:49.616Z,55.30
2018-08-06T17:44:18.022Z,55.00
2018-08-06T17:46:46.448Z,55.00
2018-08-06T17:49:14.984Z,55.30
2018-08-06T17:51:43.435Z,55.70
2018-08-06T17:54:11.856Z,56.00
2018-08-06T17:59:08.425Z,57.10
2018-08-06T18:01:36.861Z,57.90
2018-08-06T18:04:05.327Z,57.80
2018-08-06T18:06:36.053Z,57.30
2018-08-06T18:09:08.116Z,57.50
2018-08-06T18:11:36.569Z,57.60
2018-08-06T18:14:05.237Z,58.00
2018-08-06T18:16:33.801Z,58.40
2018-08-06T18:19:02.242Z,58.40
2018-08-06T18:21:30.713Z,58.90
2018-08-06T18:23:59.309Z,59.20
2018-08-06T18:26:27.776Z,59.50
2018-08-06T18:28:56.236Z,60.10
2018-08-06T18:31:24.834Z,60.40
2018-08-06T18:33:53.681Z,61.50
2018-08-06T18:36:22.098Z,60.90
2018-08-06T18:38:50.568Z,61.20
2018-08-06T18:41:19.281Z,61.30
2018-08-06T18:43:47.696Z,61.00
2018-08-06T18:46:16.199Z,62.00
2018-08-06T18:48:44.601Z,63.00
2018-08-06T18:51:13.147Z,66.30
2018-08-06T18:56:09.975Z,69.30
2018-08-06T18:58:38.448Z,70.80
2018-08-06T19:01:07.376Z,71.20
2018-08-06T19:03:35.905Z,74.30
2018-08-06T19:06:04.433Z,74.10
2018-08-06T19:11:01.684Z,76.20
2018-08-06T19:13:35.604Z,77.80
2018-08-06T19:16:04.033Z,78.60
2018-08-06T19:21:09.892Z,78.90
2018-08-06T19:23:38.830Z,80.50
2018-08-06T19:26:07.522Z,79.40
2018-08-06T19:28:35.971Z,81.30
2018-08-06T19:31:09.835Z,83.20
2018-08-06T19:33:38.312Z,82.80
2018-08-06T19:36:07.516Z,84.50
2018-08-06T19:38:36.082Z,86.10
2018-08-06T19:41:04.561Z,85.20
2018-08-06T19:46:08.549Z,84.60
2018-08-06T19:48:37.015Z,84.80
2018-08-06T19:51:05.480Z,84.60
2018-08-06T19:53:34.061Z,88.60
2018-08-06T19:56:07.809Z,90.80
2018-08-06T19:58:36.568Z,89.10
2018-08-06T20:01:05.073Z,91.10
2018-08-06T20:03:33.660Z,91.20
2018-08-06T20:06:02.214Z,91.60
2018-08-06T20:08:30.677Z,92.40
2018-08-06T20:10:59.134Z,93.60
2018-08-06T20:13:27.664Z,93.50
2018-08-06T20:15:56.156Z,94.90
2018-08-06T20:18:24.956Z,94.60
2018-08-06T20:20:53.412Z,97.40
2018-08-06T20:23:22.037Z,98.40
2018-08-06T20:25:50.888Z,97.40
2018-08-06T20:28:19.407Z,98.30
2018-08-06T20:30:48.506Z,99.40
2018-08-06T20:33:16.992Z,99.90
2018-08-06T20:38:13.669Z,99.90
2018-08-06T20:40:42.176Z,99.90
2018-08-06T20:43:10.609Z,99.90
2018-08-06T20:45:39.380Z,99.90
2018-08-06T20:48:07.868Z,99.90
2018-08-06T20:50:36.336Z,99.90
2018-08-06T20:53:04.913Z,99.90
2018-08-06T20:55:33.461Z,99.90
2018-08-06T20:58:02.170Z,99.90
2018-08-06T21:00:30.560Z,99.90
2018-08-06T21:02:59.053Z,99.90
2018-08-06T21:05:27.596Z,99.90
2018-08-06T21:07:56.204Z,99.90
2018-08-06T21:10:24.704Z,99.90
2018-08-06T21:12:53.940Z,99.90
2018-08-06T21:15:23.324Z,99.90
2018-08-06T21:17:52.028Z,99.90
2018-08-06T21:20:20.541Z,99.90
2018-08-06T21:22:49.888Z,99.90
2018-08-06T21:25:18.406Z,99.90
2018-08-06T21:27:47.908Z,99.90
2018-08-06T21:30:18.791Z,99.90
2018-08-06T21:32:49.826Z,99.90
2018-08-06T21:35:19.216Z,99.90
2018-08-06T21:37:48.893Z,99.90
2018-08-06T21:40:18.106Z,99.90
2018-08-06T21:42:46.827Z,99.90
2018-08-06T21:45:15.254Z,99.90
2018-08-06T21:47:44.064Z,99.90
2018-08-06T21:50:13.348Z,99.90
2018-08-06T21:52:41.860Z,99.90
2018-08-06T21:55:10.939Z,99.90
2018-08-06T21:57:39.491Z,99.90
2018-08-06T22:00:17.027Z,99.90
2018-08-06T22:02:45.513Z,99.90
2018-08-06T22:07:42.048Z,99.90
2018-08-06T22:10:11.169Z,99.90
2018-08-06T22:12:39.600Z,99.90
2018-08-06T22:15:08.143Z,99.90
2018-08-06T22:17:36.740Z,99.90
2018-08-06T22:20:05.717Z,99.90
2018-08-06T22:22:34.254Z,99.90
2018-08-06T22:25:03.983Z,99.90
2018-08-06T22:27:32.401Z,99.90
2018-08-06T22:30:00.960Z,99.90
2018-08-06T22:32:29.509Z,99.90
2018-08-06T22:34:57.960Z,99.90
2018-08-06T22:37:26.400Z,99.90
2018-08-06T22:39:54.797Z,99.90
2018-08-06T22:42:23.360Z,99.90
2018-08-06T22:47:19.940Z,99.90
2018-08-06T22:49:48.592Z,99.90
2018-08-06T22:52:17.042Z,99.90
2018-08-06T22:54:45.468Z,99.90
2018-08-06T22:57:14.404Z,99.90
2018-08-06T22:59:42.870Z,99.90
2018-08-06T23:02:11.284Z,99.90
2018-08-06T23:04:40.131Z,99.90
2018-08-06T23:07:08.576Z,99.90
2018-08-06T23:09:37.201Z,99.90
2018-08-06T23:12:05.941Z,99.90
2018-08-06T23:14:34.446Z,99.90
2018-08-06T23:17:03.021Z,99.90
2018-08-06T23:19:31.510Z,99.90
2018-08-06T23:21:59.934Z,99.90
2018-08-06T23:24:28.360Z,99.90
2018-08-06T23:26:56.772Z,99.90
2018-08-06T23:29:25.250Z,99.90
2018-08-06T23:31:53.712Z,99.90
2018-08-06T23:34:22.270Z,99.90
2018-08-06T23:36:50.942Z,99.90
2018-08-06T23:39:19.383Z,99.90
2018-08-06T23:41:47.958Z,99.90
2018-08-06T23:44:16.649Z,99.90
2018-08-06T23:46:45.236Z,99.90
2018-08-06T23:49:13.641Z,99.90
2018-08-06T23:51:42.198Z,99.90
2018-08-06T23:54:10.669Z,99.90
2018-08-06T23:56:39.103Z,99.90
2018-08-06T23:59:07.623Z,99.90
